createdAt,value
2018-12-09T00:01:01.991Z,65.26
2018-12-09T00:03:32.504Z,65.28
2018-12-09T00:06:03.437Z,64.97
2018-12-09T00:08:38.033Z,65.25
2018-12-09T00:11:06.488Z,65.31
2018-12-09T00:13:35.052Z,64.98
2018-12-09T00:16:03.584Z,65.28
2018-12-09T00:18:31.998Z,65.39
2018-12-09T00:21:00.516Z,65.28
2018-12-09T00:23:28.967Z,65.07
2018-12-09T00:25:57.489Z,65.39
2018-12-09T00:28:25.921Z,65.21
2018-12-09T00:30:54.320Z,65.45
2018-12-09T00:33:22.776Z,65.80
2018-12-09T00:35:51.316Z,65.82
2018-12-09T00:38:20.066Z,65.82
2018-12-09T00:40:48.467Z,65.64
2018-12-09T00:43:16.910Z,65.94
2018-12-09T00:45:45.417Z,65.36
2018-12-09T00:48:13.823Z,65.52
2018-12-09T00:50:45.926Z,65.56
2018-12-09T00:53:14.293Z,65.33
2018-12-09T00:55:43.824Z,65.03
2018-12-09T00:58:12.603Z,65.43
2018-12-09T01:00:41.208Z,65.36
2018-12-09T01:03:09.758Z,65.32
2018-12-09T01:05:38.621Z,65.25
2018-12-09T01:10:49.191Z,65.39
2018-12-09T01:13:17.723Z,65.29
2018-12-09T01:15:46.168Z,65.13
2018-12-09T01:18:14.649Z,65.32
2018-12-09T01:20:43.593Z,65.07
2018-12-09T01:25:53.963Z,65.21
2018-12-09T01:28:22.392Z,65.36
2018-12-09T01:30:52.029Z,65.46
2018-12-09T01:33:20.451Z,65.02
2018-12-09T01:38:35.687Z,65.10
2018-12-09T01:41:04.514Z,65.53
2018-12-09T01:46:14.825Z,65.28
2018-12-09T01:48:43.726Z,65.47
2018-12-09T01:51:12.172Z,65.35
2018-12-09T01:54:14.100Z,65.64
2018-12-09T01:56:43.830Z,65.19
2018-12-09T02:01:54.147Z,65.62
2018-12-09T02:07:03.926Z,65.67
2018-12-09T02:09:32.479Z,65.88
2018-12-09T02:12:00.866Z,65.83
2018-12-09T02:17:11.091Z,65.92
2018-12-09T02:19:39.616Z,66.10
2018-12-09T02:22:08.330Z,66.12
2018-12-09T02:27:18.467Z,66.39
2018-12-09T02:29:46.874Z,66.12
2018-12-09T02:32:15.480Z,65.98
2018-12-09T02:34:51.950Z,66.29
2018-12-09T02:37:20.484Z,66.32
2018-12-09T02:42:34.835Z,66.31
2018-12-09T02:45:03.847Z,66.29
2018-12-09T02:47:32.456Z,66.58
2018-12-09T02:50:00.855Z,66.12
2018-12-09T02:52:29.489Z,66.35
2018-12-09T02:54:57.901Z,66.29
2018-12-09T02:57:26.393Z,66.55
2018-12-09T02:59:54.872Z,66.21
2018-12-09T03:02:23.227Z,66.48
2018-12-09T03:07:33.521Z,66.00
2018-12-09T03:10:02.451Z,66.20
2018-12-09T03:12:31.019Z,65.91
2018-12-09T03:14:59.348Z,65.85
2018-12-09T03:20:09.544Z,65.84
2018-12-09T03:22:38.106Z,66.11
2018-12-09T03:27:48.621Z,66.05
2018-12-09T03:30:17.072Z,66.12
2018-12-09T03:32:45.474Z,66.22
2018-12-09T03:35:13.886Z,66.26
2018-12-09T03:37:42.214Z,66.12
2018-12-09T03:42:52.928Z,66.14
2018-12-09T03:45:26.870Z,66.09
2018-12-09T03:50:37.749Z,65.98
2018-12-09T03:53:07.319Z,65.92
2018-12-09T03:55:35.733Z,66.21
2018-12-09T03:58:04.200Z,66.27
2018-12-09T04:00:32.621Z,65.68
2018-12-09T04:03:01.195Z,66.25
2018-12-09T04:05:29.549Z,66.27
2018-12-09T04:10:39.806Z,65.80
2018-12-09T04:15:57.376Z,65.97
2018-12-09T04:18:27.944Z,65.98
2018-12-09T04:20:56.442Z,65.97
2018-12-09T04:23:24.897Z,65.98
2018-12-09T04:25:53.253Z,66.05
2018-12-09T04:31:03.499Z,65.83
2018-12-09T04:36:13.692Z,66.11
2018-12-09T04:38:42.054Z,66.28
2018-12-09T04:41:10.430Z,66.13
2018-12-09T04:46:20.785Z,66.31
2018-12-09T04:48:49.197Z,65.90
2018-12-09T04:51:17.547Z,66.42
2018-12-09T04:56:27.958Z,66.29
2018-12-09T04:59:23.255Z,66.62
2018-12-09T05:01:51.958Z,66.71
2018-12-09T05:04:20.656Z,66.43
2018-12-09T05:06:49.115Z,66.10
2018-12-09T05:09:17.477Z,66.18
2018-12-09T05:11:45.833Z,66.40
2018-12-09T05:14:14.195Z,66.44
2018-12-09T05:19:24.321Z,66.37
2018-12-09T05:21:53.101Z,66.36
2018-12-09T05:24:21.590Z,66.43
2018-12-09T05:26:49.954Z,66.56
2018-12-09T05:31:57.106Z,66.47
2018-12-09T05:37:07.284Z,66.56
2018-12-09T05:39:35.742Z,66.36
2018-12-09T05:44:47.320Z,66.28
2018-12-09T05:47:19.390Z,66.08
2018-12-09T05:49:48.092Z,66.80
2018-12-09T05:52:16.444Z,65.89
2018-12-09T05:54:44.831Z,66.51
2018-12-09T05:57:13.319Z,66.09
2018-12-09T05:59:42.251Z,66.09
2018-12-09T06:05:09.978Z,66.36
2018-12-09T06:07:38.311Z,66.16
2018-12-09T06:10:07.132Z,66.19
2018-12-09T06:12:35.558Z,65.80
2018-12-09T06:15:04.581Z,66.22
2018-12-09T06:20:14.773Z,65.62
2018-12-09T06:22:43.160Z,65.88
2018-12-09T06:27:53.432Z,65.46
2018-12-09T06:30:21.896Z,65.46
2018-12-09T06:35:32.372Z,65.37
2018-12-09T06:38:01.020Z,65.42
2018-12-09T06:40:29.369Z,65.56
2018-12-09T06:42:57.738Z,65.50
2018-12-09T06:48:07.909Z,65.16
2018-12-09T06:50:36.550Z,65.42
2018-12-09T06:55:48.254Z,65.39
2018-12-09T06:58:16.689Z,65.24
2018-12-09T07:00:45.203Z,65.28
2018-12-09T07:03:13.660Z,65.26
2018-12-09T07:05:42.048Z,65.31
2018-12-09T07:08:10.421Z,65.18
2018-12-09T07:10:39.942Z,65.12
2018-12-09T07:13:08.386Z,65.33
2018-12-09T07:15:36.768Z,64.86
2018-12-09T07:20:47.407Z,65.29
2018-12-09T07:23:15.877Z,65.16
2018-12-09T07:25:47.384Z,64.73
2018-12-09T07:28:15.943Z,65.01
2018-12-09T07:30:44.549Z,64.91
2018-12-09T07:33:13.487Z,64.88
2018-12-09T07:35:41.906Z,64.66
2018-12-09T07:40:52.077Z,64.93
2018-12-09T07:43:22.566Z,64.91
2018-12-09T07:48:33.252Z,65.15
2018-12-09T07:51:01.666Z,65.23
2018-12-09T07:56:11.982Z,64.99
2018-12-09T07:58:40.332Z,65.22
2018-12-09T08:01:08.780Z,65.09
2018-12-09T08:03:37.562Z,65.26
2018-12-09T08:06:06.095Z,65.32
2018-12-09T08:08:34.435Z,65.28
2018-12-09T08:11:02.873Z,65.48
2018-12-09T08:13:31.218Z,65.58
2018-12-09T08:15:59.649Z,65.28
2018-12-09T08:18:27.956Z,65.29
2018-12-09T08:20:56.353Z,65.20
2018-12-09T08:23:24.735Z,65.36
2018-12-09T08:25:53.159Z,65.18
2018-12-09T08:28:21.971Z,65.15
2018-12-09T08:30:50.410Z,65.17
2018-12-09T08:36:04.837Z,64.80
2018-12-09T08:38:33.202Z,65.20
2018-12-09T08:41:01.691Z,64.94
2018-12-09T08:43:30.052Z,64.68
2018-12-09T08:48:40.039Z,64.59
2018-12-09T08:51:08.531Z,64.74
2018-12-09T08:53:36.941Z,64.51
2018-12-09T08:56:05.315Z,64.71
2018-12-09T08:58:33.693Z,64.77
2018-12-09T09:03:43.833Z,65.23
2018-12-09T09:08:54.291Z,64.54
2018-12-09T09:11:22.659Z,64.76
2018-12-09T09:13:51.243Z,64.37
2018-12-09T09:16:19.587Z,64.55
2018-12-09T09:18:47.992Z,64.58
2018-12-09T09:23:58.386Z,64.50
2018-12-09T09:26:26.792Z,64.16
2018-12-09T09:31:37.361Z,63.98
2018-12-09T09:34:05.763Z,64.26
2018-12-09T09:36:34.166Z,64.02
2018-12-09T09:39:04.053Z,64.13
2018-12-09T09:41:32.701Z,64.11
2018-12-09T09:44:04.738Z,63.94
2018-12-09T09:49:14.809Z,64.00
2018-12-09T09:51:43.268Z,63.90
2018-12-09T09:56:54.680Z,63.90
2018-12-09T09:59:23.033Z,63.93
2018-12-09T10:01:51.728Z,63.53
2018-12-09T10:04:20.127Z,63.56
2018-12-09T10:06:48.773Z,63.86
2018-12-09T10:09:17.145Z,63.67
2018-12-09T10:11:45.548Z,63.97
2018-12-09T10:16:56.369Z,63.71
2018-12-09T10:19:24.721Z,63.35
2018-12-09T10:21:58.759Z,63.43
2018-12-09T10:24:27.096Z,63.31
2018-12-09T10:26:55.398Z,63.46
2018-12-09T10:32:05.751Z,63.75
2018-12-09T10:34:38.745Z,63.37
2018-12-09T10:37:05.541Z,63.60
2018-12-09T10:39:33.895Z,63.31
2018-12-09T10:42:02.666Z,63.74
2018-12-09T10:44:31.039Z,63.69
2018-12-09T10:47:03.100Z,63.42
2018-12-09T10:49:31.520Z,63.68
2018-12-09T10:51:59.835Z,63.68
2018-12-09T10:54:28.202Z,63.71
2018-12-09T10:59:39.575Z,63.39
2018-12-09T11:02:13.732Z,63.20
2018-12-09T11:04:42.201Z,63.10
2018-12-09T11:07:10.560Z,63.35
2018-12-09T11:09:38.949Z,63.32
2018-12-09T11:12:07.782Z,63.36
2018-12-09T11:14:36.268Z,63.52
2018-12-09T11:17:04.675Z,63.42
2018-12-09T11:19:33.339Z,63.50
2018-12-09T11:22:01.967Z,63.66
2018-12-09T11:24:30.440Z,63.38
2018-12-09T11:26:58.797Z,63.56
2018-12-09T11:29:27.224Z,63.44
2018-12-09T11:31:55.578Z,63.48
2018-12-09T11:34:23.961Z,63.31
2018-12-09T11:36:52.466Z,63.24
2018-12-09T11:39:20.876Z,63.51
2018-12-09T11:44:31.580Z,63.32
2018-12-09T11:46:59.949Z,63.80
2018-12-09T11:52:10.297Z,64.00
2018-12-09T11:54:38.682Z,63.59
2018-12-09T11:59:51.234Z,63.65
2018-12-09T12:05:01.520Z,63.58
2018-12-09T12:07:29.927Z,63.62
2018-12-09T12:09:58.429Z,63.92
2018-12-09T12:12:30.547Z,63.55
2018-12-09T12:14:58.961Z,63.39
2018-12-09T12:20:09.703Z,63.47
2018-12-09T12:22:38.118Z,63.31
2018-12-09T12:27:48.701Z,63.75
2018-12-09T12:30:17.338Z,63.96
2018-12-09T12:35:27.498Z,63.65
2018-12-09T12:37:55.862Z,63.80
2018-12-09T12:40:24.279Z,63.93
2018-12-09T12:42:53.248Z,63.49
2018-12-09T12:48:03.682Z,63.54
2018-12-09T12:50:32.129Z,63.51
2018-12-09T12:53:00.733Z,63.70
2018-12-09T12:55:29.183Z,63.31
2018-12-09T13:00:39.529Z,63.82
2018-12-09T13:03:08.004Z,63.55
2018-12-09T13:08:18.563Z,63.58
2018-12-09T13:10:46.998Z,63.55
2018-12-09T13:13:19.478Z,63.25
2018-12-09T13:15:47.904Z,63.50
2018-12-09T13:20:58.186Z,63.21
2018-12-09T13:23:27.567Z,63.62
2018-12-09T13:25:56.239Z,63.50
2018-12-09T13:28:24.728Z,63.41
2018-12-09T13:30:53.438Z,63.65
2018-12-09T13:36:04.473Z,63.48
2018-12-09T13:38:32.842Z,63.25
2018-12-09T13:41:01.443Z,63.44
2018-12-09T13:43:29.892Z,63.64
2018-12-09T13:48:40.066Z,63.23
2018-12-09T13:51:08.407Z,63.36
2018-12-09T13:53:36.798Z,63.48
2018-12-09T13:56:05.200Z,63.65
2018-12-09T14:01:15.430Z,63.24
2018-12-09T14:03:43.814Z,63.38
2018-12-09T14:06:13.243Z,63.76
2018-12-09T14:08:41.647Z,63.42
2018-12-09T14:11:10.092Z,63.64
2018-12-09T14:13:42.519Z,63.63
2018-12-09T14:16:10.921Z,63.66
2018-12-09T14:18:39.421Z,63.81
2018-12-09T14:21:07.810Z,63.67
2018-12-09T14:23:36.260Z,63.69
2018-12-09T14:26:04.879Z,63.46
2018-12-09T14:28:33.324Z,63.66
2018-12-09T14:31:01.787Z,63.67
2018-12-09T14:33:30.307Z,63.61
2018-12-09T14:35:58.864Z,63.71
2018-12-09T14:41:09.058Z,63.57
2018-12-09T14:43:37.412Z,63.57
2018-12-09T14:46:05.808Z,63.55
2018-12-09T14:48:34.209Z,63.80
2018-12-09T14:51:02.751Z,63.64
2018-12-09T14:53:31.242Z,63.66
2018-12-09T14:55:59.647Z,63.55
2018-12-09T14:58:28.183Z,63.87
2018-12-09T15:00:56.574Z,63.43
2018-12-09T15:03:25.016Z,63.61
2018-12-09T15:08:35.874Z,63.73
2018-12-09T15:11:04.255Z,63.68
2018-12-09T15:13:32.640Z,63.76
2018-12-09T15:16:01.050Z,63.60
2018-12-09T15:21:16.601Z,63.60
2018-12-09T15:23:44.856Z,63.47
2018-12-09T15:28:55.432Z,63.53
2018-12-09T15:31:23.817Z,63.43
2018-12-09T15:33:52.193Z,63.60
2018-12-09T15:36:20.640Z,63.58
2018-12-09T15:38:48.987Z,63.47
2018-12-09T15:41:17.357Z,63.26
2018-12-09T15:43:45.821Z,63.64
2018-12-09T15:46:14.237Z,63.72
2018-12-09T15:51:24.440Z,63.77
2018-12-09T15:56:35.097Z,63.66
2018-12-09T15:59:03.600Z,63.63
2018-12-09T16:01:32.083Z,63.70
2018-12-09T16:04:00.512Z,63.94
2018-12-09T16:09:10.743Z,63.61
2018-12-09T16:11:39.142Z,63.94
2018-12-09T16:16:49.181Z,63.99
2018-12-09T16:19:17.845Z,63.85
2018-12-09T16:21:46.194Z,64.18
2018-12-09T16:24:14.953Z,63.97
2018-12-09T16:26:43.548Z,63.95
2018-12-09T16:29:12.025Z,63.77
2018-12-09T16:31:40.477Z,63.91
2018-12-09T16:34:09.600Z,63.88
2018-12-09T16:39:19.623Z,64.08
2018-12-09T16:41:48.218Z,64.33
2018-12-09T16:46:58.769Z,63.95
2018-12-09T16:49:27.522Z,64.44
2018-12-09T16:51:56.924Z,64.19
2018-12-09T16:54:25.641Z,64.25
2018-12-09T16:56:54.323Z,64.26
2018-12-09T16:59:22.888Z,64.34
2018-12-09T17:01:51.351Z,64.28
2018-12-09T17:04:21.414Z,64.43
2018-12-09T17:06:50.024Z,64.37
2018-12-09T17:09:18.459Z,64.65
2018-12-09T17:11:47.049Z,64.18
2018-12-09T17:14:16.263Z,64.52
2018-12-09T17:16:44.900Z,64.15
2018-12-09T17:19:14.127Z,64.26
2018-12-09T17:21:42.732Z,64.71
2018-12-09T17:24:11.142Z,64.50
2018-12-09T17:26:39.876Z,64.57
2018-12-09T17:29:08.664Z,64.54
2018-12-09T17:34:19.071Z,64.54
2018-12-09T17:36:47.635Z,64.55
2018-12-09T17:39:16.240Z,64.25
2018-12-09T17:41:45.046Z,64.53
2018-12-09T17:44:13.579Z,64.48
2018-12-09T17:46:42.423Z,64.23
2018-12-09T17:49:11.031Z,64.25
2018-12-09T17:51:39.538Z,64.77
2018-12-09T17:54:08.570Z,64.32
2018-12-09T17:56:37.463Z,64.71
2018-12-09T18:01:49.216Z,64.44
2018-12-09T18:04:17.760Z,64.67
2018-12-09T18:06:46.367Z,64.46
2018-12-09T18:09:15.087Z,64.44
2018-12-09T18:14:25.820Z,64.71
2018-12-09T18:16:54.432Z,64.60
2018-12-09T18:22:05.124Z,64.48
2018-12-09T18:27:15.875Z,64.39
2018-12-09T18:29:44.353Z,64.24
2018-12-09T18:34:55.672Z,64.30
2018-12-09T18:37:24.356Z,64.22
2018-12-09T18:39:53.349Z,63.92
2018-12-09T18:42:22.083Z,64.60
2018-12-09T18:44:50.758Z,64.31
2018-12-09T18:47:20.508Z,64.30
2018-12-09T18:49:49.129Z,64.17
2018-12-09T18:52:17.641Z,64.43
2018-12-09T18:54:46.275Z,64.54
2018-12-09T18:57:14.801Z,64.21
2018-12-09T18:59:43.372Z,64.36
2018-12-09T19:02:11.779Z,64.38
2018-12-09T19:04:40.885Z,64.17
2018-12-09T19:07:09.366Z,64.13
2018-12-09T19:09:38.054Z,64.09
2018-12-09T19:12:06.852Z,63.88
2018-12-09T19:14:35.621Z,63.92
2018-12-09T19:17:04.670Z,64.13
2018-12-09T19:19:33.210Z,63.93
2018-12-09T19:22:01.960Z,64.32
2018-12-09T19:27:12.730Z,63.83
2018-12-09T19:29:42.145Z,63.68
2018-12-09T19:34:52.579Z,63.78
2018-12-09T19:37:21.142Z,63.64
2018-12-09T19:39:49.602Z,63.79
2018-12-09T19:42:20.129Z,63.66
2018-12-09T19:44:49.168Z,63.73
2018-12-09T19:47:18.055Z,63.93
2018-12-09T19:49:46.493Z,63.93
2018-12-09T19:52:15.490Z,64.00
2018-12-09T19:54:44.256Z,63.54
2018-12-09T19:57:13.065Z,63.81
2018-12-09T19:59:41.860Z,64.05
2018-12-09T20:02:10.373Z,63.78
2018-12-09T20:07:20.752Z,63.27
2018-12-09T20:09:49.917Z,63.15
2018-12-09T20:12:21.066Z,63.31
2018-12-09T20:17:32.221Z,63.30
2018-12-09T20:20:00.927Z,63.14
2018-12-09T20:22:29.814Z,63.01
2018-12-09T20:24:58.348Z,63.08
2018-12-09T20:27:27.945Z,63.45
2018-12-09T20:29:57.368Z,63.46
2018-12-09T20:32:26.376Z,63.14
2018-12-09T20:34:54.908Z,63.16
2018-12-09T20:37:23.564Z,62.98
2018-12-09T20:42:34.098Z,62.99
2018-12-09T20:45:03.036Z,63.13
2018-12-09T20:47:31.615Z,63.09
2018-12-09T20:50:00.028Z,63.23
2018-12-09T20:55:10.706Z,63.21
2018-12-09T20:57:39.049Z,63.28
2018-12-09T21:00:08.860Z,63.32
2018-12-09T21:02:37.851Z,63.38
2018-12-09T21:07:49.822Z,63.52
2018-12-09T21:10:18.703Z,63.44
2018-12-09T21:15:29.255Z,63.40
2018-12-09T21:17:57.883Z,63.67
2018-12-09T21:20:27.733Z,63.71
2018-12-09T21:22:56.490Z,63.74
2018-12-09T21:25:24.992Z,64.01
2018-12-09T21:30:35.762Z,63.54
2018-12-09T21:33:05.145Z,63.47
2018-12-09T21:38:15.417Z,63.80
2018-12-09T21:40:43.972Z,63.27
2018-12-09T21:45:54.717Z,63.80
2018-12-09T21:48:23.203Z,63.51
2018-12-09T21:50:51.695Z,63.50
2018-12-09T21:53:20.099Z,63.55
2018-12-09T21:58:31.338Z,63.58
2018-12-09T22:01:00.098Z,63.61
2018-12-09T22:06:10.870Z,63.39
2018-12-09T22:08:39.622Z,63.51
2018-12-09T22:11:08.385Z,63.41
2018-12-09T22:13:36.941Z,63.78
2018-12-09T22:16:05.576Z,63.81
2018-12-09T22:18:34.009Z,63.58
2018-12-09T22:21:03.008Z,63.57
2018-12-09T22:26:13.952Z,63.34
2018-12-09T22:28:42.447Z,63.78
2018-12-09T22:31:10.966Z,63.65
2018-12-09T22:33:39.591Z,63.70
2018-12-09T22:36:17.878Z,63.56
2018-12-09T22:38:58.055Z,63.02
2018-12-09T22:41:31.628Z,63.29
2018-12-09T22:46:50.521Z,63.31
2018-12-09T22:49:28.097Z,63.29
2018-12-09T22:52:04.249Z,63.46
2018-12-09T22:54:40.648Z,63.30
2018-12-09T22:57:10.055Z,63.47
2018-12-09T22:59:51.676Z,63.17
2018-12-09T23:02:26.801Z,63.22
2018-12-09T23:04:56.096Z,62.85
2018-12-09T23:07:30.126Z,63.76
2018-12-09T23:09:58.979Z,63.08
2018-12-09T23:15:09.486Z,63.09
2018-12-09T23:17:37.954Z,62.83
2018-12-09T23:20:06.606Z,63.03
2018-12-09T23:22:34.998Z,62.98
2018-12-09T23:25:03.830Z,62.78
2018-12-09T23:27:32.248Z,62.84
2018-12-09T23:30:00.981Z,62.69
2018-12-09T23:32:29.385Z,62.85
2018-12-09T23:37:40.340Z,62.70
2018-12-09T23:40:09.028Z,62.95
2018-12-09T23:42:37.502Z,62.52
2018-12-09T23:45:06.637Z,62.84
2018-12-09T23:47:35.524Z,62.94
2018-12-09T23:50:06.092Z,62.62
2018-12-09T23:55:16.562Z,62.65
2018-12-09T23:57:45.173Z,62.55
